sensor_id;sensor_type;location;lat;lon;timestamp;noise_LAeq;noise_LA_min;noise_LA_max;noise_LA01;noise_LA95
37223;Laerm;28026;48.562;14.440;2024-02-21T00:01:18;39.42;32.93;58.51;;
37223;Laerm;28026;48.562;14.440;2024-02-21T00:03:50;39.20;32.58;51.40;;
37223;Laerm;28026;48.562;14.440;2024-02-21T00:06:21;38.91;32.35;50.37;;
37223;Laerm;28026;48.562;14.440;2024-02-21T00:08:52;39.44;33.44;58.46;;
37223;Laerm;28026;48.562;14.440;2024-02-21T00:11:24;38.80;32.35;48.40;;
37223;Laerm;28026;48.562;14.440;2024-02-21T00:13:55;38.92;33.44;47.36;;
37223;Laerm;28026;48.562;14.440;2024-02-21T00:16:26;39.96;34.31;61.14;;
37223;Laerm;28026;48.562;14.440;2024-02-21T00:18:57;40.53;33.90;59.17;;
37223;Laerm;28026;48.562;14.440;2024-02-21T00:21:28;48.54;34.31;77.39;;
37223;Laerm;28026;48.562;14.440;2024-02-21T00:23:59;39.35;32.93;55.55;;
37223;Laerm;28026;48.562;14.440;2024-02-21T00:26:30;42.11;34.69;66.63;;
37223;Laerm;28026;48.562;14.440;2024-02-21T00:29:01;41.75;33.55;67.58;;
37223;Laerm;28026;48.562;14.440;2024-02-21T00:31:31;40.56;29.92;61.33;;
37223;Laerm;28026;48.562;14.440;2024-02-21T00:34:02;39.83;32.93;45.07;;
37223;Laerm;28026;48.562;14.440;2024-02-21T00:36:33;38.92;32.93;56.54;;
37223;Laerm;28026;48.562;14.440;2024-02-21T00:39:04;40.23;33.90;53.06;;
37223;Laerm;28026;48.562;14.440;2024-02-21T00:41:35;38.55;32.93;44.11;;
37223;Laerm;28026;48.562;14.440;2024-02-21T00:44:06;38.34;33.44;48.26;;
37223;Laerm;28026;48.562;14.440;2024-02-21T00:46:37;38.38;32.35;46.64;;
37223;Laerm;28026;48.562;14.440;2024-02-21T00:49:09;38.50;32.93;42.22;;
37223;Laerm;28026;48.562;14.440;2024-02-21T00:51:40;38.65;32.93;44.83;;
37223;Laerm;28026;48.562;14.440;2024-02-21T00:54:11;39.06;33.44;45.83;;
37223;Laerm;28026;48.562;14.440;2024-02-21T00:56:42;40.88;32.93;54.97;;
37223;Laerm;28026;48.562;14.440;2024-02-21T00:59:13;41.62;35.36;63.71;;
37223;Laerm;28026;48.562;14.440;2024-02-21T01:01:44;40.10;35.04;42.03;;
37223;Laerm;28026;48.562;14.440;2024-02-21T01:04:15;39.54;33.44;46.35;;
37223;Laerm;28026;48.562;14.440;2024-02-21T01:06:46;40.35;36.20;42.16;;
37223;Laerm;28026;48.562;14.440;2024-02-21T01:09:17;40.24;34.69;57.17;;
37223;Laerm;28026;48.562;14.440;2024-02-21T01:11:48;39.87;32.58;56.83;;
37223;Laerm;28026;48.562;14.440;2024-02-21T01:14:19;39.75;33.90;41.96;;
37223;Laerm;28026;48.562;14.440;2024-02-21T01:16:50;38.07;32.93;41.75;;
37223;Laerm;28026;48.562;14.440;2024-02-21T01:19:21;37.79;30.89;41.82;;
37223;Laerm;28026;48.562;14.440;2024-02-21T01:21:52;37.73;32.93;47.46;;
37223;Laerm;28026;48.562;14.440;2024-02-21T01:24:23;38.23;33.44;45.54;;
37223;Laerm;28026;48.562;14.440;2024-02-21T01:26:54;39.57;33.90;41.88;;
37223;Laerm;28026;48.562;14.440;2024-02-21T01:29:25;39.13;29.92;41.68;;
37223;Laerm;28026;48.562;14.440;2024-02-21T01:31:56;39.45;34.31;54.51;;
37223;Laerm;28026;48.562;14.440;2024-02-21T01:34:27;38.63;32.93;46.88;;
37223;Laerm;28026;48.562;14.440;2024-02-21T01:36:58;40.59;31.68;65.06;;
37223;Laerm;28026;48.562;14.440;2024-02-21T01:39:30;38.15;33.90;49.77;;
37223;Laerm;28026;48.562;14.440;2024-02-21T01:42:01;37.70;31.33;44.16;;
37223;Laerm;28026;48.562;14.440;2024-02-21T01:44:32;38.90;30.89;55.87;;
37223;Laerm;28026;48.562;14.440;2024-02-21T01:47:03;38.19;32.35;45.89;;
37223;Laerm;28026;48.562;14.440;2024-02-21T01:49:35;37.42;31.68;45.83;;
37223;Laerm;28026;48.562;14.440;2024-02-21T01:52:07;36.68;31.68;40.03;;
37223;Laerm;28026;48.562;14.440;2024-02-21T01:54:39;36.67;31.68;41.48;;
37223;Laerm;28026;48.562;14.440;2024-02-21T01:57:10;36.62;31.68;39.46;;
37223;Laerm;28026;48.562;14.440;2024-02-21T01:59:42;36.64;30.89;39.34;;
37223;Laerm;28026;48.562;14.440;2024-02-21T02:02:14;43.99;31.68;56.11;;
37223;Laerm;28026;48.562;14.440;2024-02-21T02:04:45;38.39;32.35;43.72;;
37223;Laerm;28026;48.562;14.440;2024-02-21T02:07:16;37.02;32.35;40.98;;
37223;Laerm;28026;48.562;14.440;2024-02-21T02:09:47;39.61;30.89;61.11;;
37223;Laerm;28026;48.562;14.440;2024-02-21T02:12:18;36.94;31.68;40.62;;
37223;Laerm;28026;48.562;14.440;2024-02-21T02:15:03;36.77;31.68;40.80;;
37223;Laerm;28026;48.562;14.440;2024-02-21T02:17:35;37.47;32.35;43.19;;
37223;Laerm;28026;48.562;14.440;2024-02-21T02:20:07;37.16;30.54;47.30;;
37223;Laerm;28026;48.562;14.440;2024-02-21T02:22:43;36.77;29.92;40.33;;
37223;Laerm;28026;48.562;14.440;2024-02-21T02:25:14;36.89;30.89;44.80;;
37223;Laerm;28026;48.562;14.440;2024-02-21T02:27:45;36.73;31.68;40.27;;
37223;Laerm;28026;48.562;14.440;2024-02-21T02:30:16;36.66;29.92;39.70;;
37223;Laerm;28026;48.562;14.440;2024-02-21T02:32:47;36.71;31.68;39.92;;
37223;Laerm;28026;48.562;14.440;2024-02-21T02:35:18;37.10;30.89;41.30;;
37223;Laerm;28026;48.562;14.440;2024-02-21T02:37:50;42.15;32.93;53.38;;
37223;Laerm;28026;48.562;14.440;2024-02-21T02:40:21;37.33;31.68;43.63;;
37223;Laerm;28026;48.562;14.440;2024-02-21T02:42:52;37.68;32.93;42.59;;
37223;Laerm;28026;48.562;14.440;2024-02-21T02:45:25;36.81;30.89;49.03;;
37223;Laerm;28026;48.562;14.440;2024-02-21T02:47:57;36.91;28.67;41.14;;
37223;Laerm;28026;48.562;14.440;2024-02-21T02:50:28;37.92;32.93;43.29;;
37223;Laerm;28026;48.562;14.440;2024-02-21T02:52:59;39.54;33.90;45.11;;
37223;Laerm;28026;48.562;14.440;2024-02-21T02:55:30;37.79;33.44;41.82;;
37223;Laerm;28026;48.562;14.440;2024-02-21T02:58:01;37.34;32.35;41.46;;
37223;Laerm;28026;48.562;14.440;2024-02-21T03:00:33;38.01;30.89;55.43;;
37223;Laerm;28026;48.562;14.440;2024-02-21T03:03:06;41.93;31.68;62.85;;
37223;Laerm;28026;48.562;14.440;2024-02-21T03:05:39;42.72;31.68;64.41;;
37223;Laerm;28026;48.562;14.440;2024-02-21T03:08:10;39.90;33.44;55.51;;
37223;Laerm;28026;48.562;14.440;2024-02-21T03:10:41;38.29;32.35;52.15;;
37223;Laerm;28026;48.562;14.440;2024-02-21T03:13:12;37.81;32.35;44.51;;
37223;Laerm;28026;48.562;14.440;2024-02-21T03:15:43;37.27;31.68;42.16;;
37223;Laerm;28026;48.562;14.440;2024-02-21T03:18:13;37.24;30.89;41.53;;
37223;Laerm;28026;48.562;14.440;2024-02-21T03:20:44;38.88;32.93;57.75;;
37223;Laerm;28026;48.562;14.440;2024-02-21T03:23:15;41.09;32.35;59.22;;
37223;Laerm;28026;48.562;14.440;2024-02-21T03:25:46;37.31;31.68;40.43;;
37223;Laerm;28026;48.562;14.440;2024-02-21T03:28:17;46.22;32.35;69.25;;
37223;Laerm;28026;48.562;14.440;2024-02-21T03:30:48;45.48;33.90;74.70;;
37223;Laerm;28026;48.562;14.440;2024-02-21T03:33:19;46.27;34.31;69.20;;
37223;Laerm;28026;48.562;14.440;2024-02-21T03:35:51;40.08;32.35;50.25;;
37223;Laerm;28026;48.562;14.440;2024-02-21T03:38:22;40.62;33.44;65.73;;
37223;Laerm;28026;48.562;14.440;2024-02-21T03:40:53;40.53;34.31;55.06;;
37223;Laerm;28026;48.562;14.440;2024-02-21T03:43:24;44.62;35.04;61.52;;
37223;Laerm;28026;48.562;14.440;2024-02-21T03:45:55;39.43;32.93;46.35;;
37223;Laerm;28026;48.562;14.440;2024-02-21T03:48:26;38.39;33.44;46.69;;
37223;Laerm;28026;48.562;14.440;2024-02-21T03:50:57;43.11;34.69;51.64;;
37223;Laerm;28026;48.562;14.440;2024-02-21T03:53:28;41.89;36.45;49.44;;
37223;Laerm;28026;48.562;14.440;2024-02-21T03:56:02;42.19;35.36;55.25;;
37223;Laerm;28026;48.562;14.440;2024-02-21T03:58:34;38.66;32.35;57.18;;
37223;Laerm;28026;48.562;14.440;2024-02-21T04:01:05;39.43;32.35;58.00;;
37223;Laerm;28026;48.562;14.440;2024-02-21T04:03:36;39.15;33.90;52.14;;
37223;Laerm;28026;48.562;14.440;2024-02-21T04:06:07;38.67;32.93;43.14;;
37223;Laerm;28026;48.562;14.440;2024-02-21T04:08:39;39.30;33.90;52.91;;
37223;Laerm;28026;48.562;14.440;2024-02-21T04:11:10;44.81;34.31;63.89;;
37223;Laerm;28026;48.562;14.440;2024-02-21T04:13:41;42.98;36.20;53.30;;
37223;Laerm;28026;48.562;14.440;2024-02-21T04:16:12;41.82;33.90;51.53;;
37223;Laerm;28026;48.562;14.440;2024-02-21T04:18:43;40.22;35.36;44.65;;
37223;Laerm;28026;48.562;14.440;2024-02-21T04:21:15;46.66;35.04;65.45;;
37223;Laerm;28026;48.562;14.440;2024-02-21T04:23:49;43.84;37.52;54.46;;
37223;Laerm;28026;48.562;14.440;2024-02-21T04:26:19;39.63;34.31;44.80;;
37223;Laerm;28026;48.562;14.440;2024-02-21T04:28:50;41.89;35.36;55.57;;
37223;Laerm;28026;48.562;14.440;2024-02-21T04:31:21;42.15;35.86;48.88;;
37223;Laerm;28026;48.562;14.440;2024-02-21T04:33:52;39.86;35.66;47.18;;
37223;Laerm;28026;48.562;14.440;2024-02-21T04:36:23;38.83;34.31;46.18;;
37223;Laerm;28026;48.562;14.440;2024-02-21T04:38:54;40.12;33.44;48.42;;
37223;Laerm;28026;48.562;14.440;2024-02-21T04:41:25;39.39;35.36;50.06;;
37223;Laerm;28026;48.562;14.440;2024-02-21T04:43:56;45.90;36.69;65.00;;
37223;Laerm;28026;48.562;14.440;2024-02-21T04:46:27;40.77;36.45;55.31;;
37223;Laerm;28026;48.562;14.440;2024-02-21T04:48:58;42.59;33.44;71.23;;
37223;Laerm;28026;48.562;14.440;2024-02-21T04:51:29;46.47;35.04;77.29;;
37223;Laerm;28026;48.562;14.440;2024-02-21T04:53:59;44.18;34.31;71.46;;
37223;Laerm;28026;48.562;14.440;2024-02-21T04:56:30;43.01;34.69;60.21;;
37223;Laerm;28026;48.562;14.440;2024-02-21T04:59:01;46.67;33.90;64.93;;
37223;Laerm;28026;48.562;14.440;2024-02-21T05:01:32;42.09;37.32;49.40;;
37223;Laerm;28026;48.562;14.440;2024-02-21T05:04:03;42.58;35.94;52.59;;
37223;Laerm;28026;48.562;14.440;2024-02-21T05:06:42;43.63;37.32;55.38;;
37223;Laerm;28026;48.562;14.440;2024-02-21T05:09:13;45.76;37.32;55.55;;
37223;Laerm;28026;48.562;14.440;2024-02-21T05:11:44;41.17;35.66;48.00;;
37223;Laerm;28026;48.562;14.440;2024-02-21T05:14:15;40.78;35.01;62.65;;
37223;Laerm;28026;48.562;14.440;2024-02-21T05:16:46;40.86;35.31;55.86;;
37223;Laerm;28026;48.562;14.440;2024-02-21T05:19:17;42.52;33.90;65.13;;
37223;Laerm;28026;48.562;14.440;2024-02-21T05:21:48;42.38;35.04;60.41;;
37223;Laerm;28026;48.562;14.440;2024-02-21T05:24:19;43.03;33.90;71.20;;
37223;Laerm;28026;48.562;14.440;2024-02-21T05:26:50;43.13;34.69;64.56;;
37223;Laerm;28026;48.562;14.440;2024-02-21T05:29:23;43.64;38.21;63.77;;
37223;Laerm;28026;48.562;14.440;2024-02-21T05:34:25;46.99;35.04;71.01;;
37223;Laerm;28026;48.562;14.440;2024-02-21T05:36:57;44.77;34.69;68.29;;
37223;Laerm;28026;48.562;14.440;2024-02-21T05:39:30;48.50;34.69;77.73;;
37223;Laerm;28026;48.562;14.440;2024-02-21T05:42:01;48.30;36.20;72.03;;
37223;Laerm;28026;48.562;14.440;2024-02-21T05:44:32;51.51;35.66;75.71;;
37223;Laerm;28026;48.562;14.440;2024-02-21T05:47:03;45.35;35.36;66.90;;
37223;Laerm;28026;48.562;14.440;2024-02-21T05:49:34;44.68;35.94;67.82;;
37223;Laerm;28026;48.562;14.440;2024-02-21T05:52:05;47.45;38.67;73.56;;
37223;Laerm;28026;48.562;14.440;2024-02-21T05:54:39;45.14;36.91;71.10;;
37223;Laerm;28026;48.562;14.440;2024-02-21T05:57:10;45.63;34.31;63.44;;
37223;Laerm;28026;48.562;14.440;2024-02-21T05:59:41;40.94;35.04;57.53;;
37223;Laerm;28026;48.562;14.440;2024-02-21T06:02:12;40.89;35.04;46.48;;
37223;Laerm;28026;48.562;14.440;2024-02-21T06:04:44;40.54;35.66;53.81;;
37223;Laerm;28026;48.562;14.440;2024-02-21T06:07:15;40.82;35.59;53.93;;
37223;Laerm;28026;48.562;14.440;2024-02-21T06:09:46;39.41;34.31;57.28;;
37223;Laerm;28026;48.562;14.440;2024-02-21T06:12:17;44.37;35.04;60.40;;
37223;Laerm;28026;48.562;14.440;2024-02-21T06:14:48;42.56;36.20;59.57;;
37223;Laerm;28026;48.562;14.440;2024-02-21T06:17:19;39.46;35.36;46.52;;
37223;Laerm;28026;48.562;14.440;2024-02-21T06:19:50;39.94;35.36;48.71;;
37223;Laerm;28026;48.562;14.440;2024-02-21T06:22:21;41.27;35.04;60.54;;
37223;Laerm;28026;48.562;14.440;2024-02-21T06:24:51;46.09;36.91;70.80;;
37223;Laerm;28026;48.562;14.440;2024-02-21T06:27:24;49.14;35.36;72.03;;
37223;Laerm;28026;48.562;14.440;2024-02-21T06:29:56;46.68;36.45;66.05;;
37223;Laerm;28026;48.562;14.440;2024-02-21T06:32:27;53.03;36.45;81.77;;
37223;Laerm;28026;48.562;14.440;2024-02-21T06:34:58;51.06;36.34;73.74;;
37223;Laerm;28026;48.562;14.440;2024-02-21T06:37:29;54.45;38.21;79.79;;
37223;Laerm;28026;48.562;14.440;2024-02-21T06:40:00;52.19;36.91;79.05;;
37223;Laerm;28026;48.562;14.440;2024-02-21T06:42:31;64.58;35.04;89.17;;
37223;Laerm;28026;48.562;14.440;2024-02-21T06:45:03;51.63;37.52;78.26;;
37223;Laerm;28026;48.562;14.440;2024-02-21T06:47:34;51.34;36.91;74.24;;
37223;Laerm;28026;48.562;14.440;2024-02-21T06:50:05;47.48;35.94;69.96;;
37223;Laerm;28026;48.562;14.440;2024-02-21T06:52:37;41.73;34.69;52.96;;
37223;Laerm;28026;48.562;14.440;2024-02-21T06:55:08;45.44;34.31;65.51;;
37223;Laerm;28026;48.562;14.440;2024-02-21T06:57:39;41.66;37.52;57.81;;
37223;Laerm;28026;48.562;14.440;2024-02-21T07:00:11;48.24;36.20;79.13;;
37223;Laerm;28026;48.562;14.440;2024-02-21T07:02:42;43.93;36.91;64.79;;
37223;Laerm;28026;48.562;14.440;2024-02-21T07:05:13;42.17;37.52;57.63;;
37223;Laerm;28026;48.562;14.440;2024-02-21T07:07:44;41.14;36.20;48.32;;
37223;Laerm;28026;48.562;14.440;2024-02-21T07:10:15;47.72;35.66;74.09;;
37223;Laerm;28026;48.562;14.440;2024-02-21T07:12:46;53.07;36.45;85.43;;
37223;Laerm;28026;48.562;14.440;2024-02-21T07:15:16;57.48;36.45;84.42;;
37223;Laerm;28026;48.562;14.440;2024-02-21T07:17:47;56.52;36.45;83.68;;
37223;Laerm;28026;48.562;14.440;2024-02-21T07:20:18;68.87;35.66;99.85;;
37223;Laerm;28026;48.562;14.440;2024-02-21T07:22:49;61.65;35.04;87.95;;
37223;Laerm;28026;48.562;14.440;2024-02-21T07:25:20;52.63;35.66;75.21;;
37223;Laerm;28026;48.562;14.440;2024-02-21T07:27:51;51.61;35.94;76.63;;
37223;Laerm;28026;48.562;14.440;2024-02-21T07:30:22;52.37;35.94;74.19;;
37223;Laerm;28026;48.562;14.440;2024-02-21T07:32:53;50.61;36.69;78.81;;
37223;Laerm;28026;48.562;14.440;2024-02-21T07:35:25;49.31;36.20;78.03;;
37223;Laerm;28026;48.562;14.440;2024-02-21T07:37:56;53.29;35.36;85.04;;
37223;Laerm;28026;48.562;14.440;2024-02-21T07:40:27;59.51;37.12;85.75;;
37223;Laerm;28026;48.562;14.440;2024-02-21T07:42:57;60.85;37.70;90.64;;
37223;Laerm;28026;48.562;14.440;2024-02-21T07:45:28;58.02;38.37;79.72;;
37223;Laerm;28026;48.562;14.440;2024-02-21T07:47:59;55.24;34.69;78.27;;
37223;Laerm;28026;48.562;14.440;2024-02-21T07:50:30;44.82;34.69;65.62;;
37223;Laerm;28026;48.562;14.440;2024-02-21T07:53:01;54.96;36.20;83.50;;
37223;Laerm;28026;48.562;14.440;2024-02-21T07:55:32;55.48;37.12;85.56;;
37223;Laerm;28026;48.562;14.440;2024-02-21T07:58:03;51.15;35.66;78.51;;
37223;Laerm;28026;48.562;14.440;2024-02-21T08:00:34;53.02;38.05;78.07;;
37223;Laerm;28026;48.562;14.440;2024-02-21T08:03:05;50.50;36.69;78.14;;
37223;Laerm;28026;48.562;14.440;2024-02-21T08:05:36;53.01;36.20;77.30;;
37223;Laerm;28026;48.562;14.440;2024-02-21T08:08:07;54.47;37.12;78.81;;
37223;Laerm;28026;48.562;14.440;2024-02-21T08:10:40;53.16;36.91;81.34;;
37223;Laerm;28026;48.562;14.440;2024-02-21T08:13:11;55.01;38.52;81.67;;
37223;Laerm;28026;48.562;14.440;2024-02-21T08:15:42;44.90;37.12;68.78;;
37223;Laerm;28026;48.562;14.440;2024-02-21T08:18:13;40.93;35.36;53.31;;
37223;Laerm;28026;48.562;14.440;2024-02-21T08:20:44;40.66;35.04;61.54;;
37223;Laerm;28026;48.562;14.440;2024-02-21T08:23:19;48.50;35.94;78.14;;
37223;Laerm;28026;48.562;14.440;2024-02-21T08:25:50;58.01;35.36;86.57;;
37223;Laerm;28026;48.562;14.440;2024-02-21T08:28:21;52.88;35.04;81.38;;
37223;Laerm;28026;48.562;14.440;2024-02-21T08:30:51;57.00;35.36;83.68;;
37223;Laerm;28026;48.562;14.440;2024-02-21T08:33:22;56.62;33.90;81.26;;
37223;Laerm;28026;48.562;14.440;2024-02-21T08:35:55;59.65;37.88;86.01;;
37223;Laerm;28026;48.562;14.440;2024-02-21T08:38:26;64.25;38.67;89.71;;
37223;Laerm;28026;48.562;14.440;2024-02-21T08:40:57;68.02;36.69;97.86;;
37223;Laerm;28026;48.562;14.440;2024-02-21T08:43:28;60.91;34.31;83.70;;
37223;Laerm;28026;48.562;14.440;2024-02-21T08:46:00;66.57;36.91;91.08;;
37223;Laerm;28026;48.562;14.440;2024-02-21T08:48:31;65.59;38.37;91.34;;
37223;Laerm;28026;48.562;14.440;2024-02-21T08:51:02;64.11;38.67;87.30;;
37223;Laerm;28026;48.562;14.440;2024-02-21T08:53:33;62.57;38.05;87.67;;
37223;Laerm;28026;48.562;14.440;2024-02-21T08:56:05;61.89;37.88;91.87;;
37223;Laerm;28026;48.562;14.440;2024-02-21T08:58:38;62.98;37.70;87.02;;
37223;Laerm;28026;48.562;14.440;2024-02-21T09:01:10;59.95;38.05;84.36;;
37223;Laerm;28026;48.562;14.440;2024-02-21T09:03:41;61.68;37.88;88.13;;
37223;Laerm;28026;48.562;14.440;2024-02-21T09:06:12;58.07;34.69;86.59;;
37223;Laerm;28026;48.562;14.440;2024-02-21T09:08:44;56.79;35.04;83.26;;
37223;Laerm;28026;48.562;14.440;2024-02-21T09:11:15;53.51;35.04;86.44;;
37223;Laerm;28026;48.562;14.440;2024-02-21T09:13:46;54.82;36.91;80.76;;
37223;Laerm;28026;48.562;14.440;2024-02-21T09:16:17;51.89;37.12;76.74;;
37223;Laerm;28026;48.562;14.440;2024-02-21T09:18:48;49.38;35.94;72.64;;
37223;Laerm;28026;48.562;14.440;2024-02-21T09:21:19;56.21;36.45;81.38;;
37223;Laerm;28026;48.562;14.440;2024-02-21T09:23:50;53.51;34.31;79.45;;
37223;Laerm;28026;48.562;14.440;2024-02-21T09:26:21;54.56;37.70;80.17;;
37223;Laerm;28026;48.562;14.440;2024-02-21T09:28:52;58.70;35.59;85.48;;
37223;Laerm;28026;48.562;14.440;2024-02-21T09:31:23;59.89;36.45;83.70;;
37223;Laerm;28026;48.562;14.440;2024-02-21T09:33:54;58.02;35.04;82.91;;
37223;Laerm;28026;48.562;14.440;2024-02-21T09:36:25;52.77;35.94;79.93;;
37223;Laerm;28026;48.562;14.440;2024-02-21T09:38:56;56.21;35.36;79.64;;
37223;Laerm;28026;48.562;14.440;2024-02-21T09:41:27;54.49;35.94;82.47;;
37223;Laerm;28026;48.562;14.440;2024-02-21T09:43:59;52.90;35.66;79.44;;
37223;Laerm;28026;48.562;14.440;2024-02-21T09:46:55;47.57;35.36;70.41;;
37223;Laerm;28026;48.562;14.440;2024-02-21T09:49:35;51.75;36.69;77.27;;
37223;Laerm;28026;48.562;14.440;2024-02-21T09:52:10;51.26;36.45;75.03;;
37223;Laerm;28026;48.562;14.440;2024-02-21T09:54:44;51.91;37.88;79.36;;
37223;Laerm;28026;48.562;14.440;2024-02-21T09:57:16;56.06;34.69;80.02;;
37223;Laerm;28026;48.562;14.440;2024-02-21T09:59:47;53.45;35.66;78.58;;
37223;Laerm;28026;48.562;14.440;2024-02-21T10:02:18;48.73;36.45;70.82;;
37223;Laerm;28026;48.562;14.440;2024-02-21T10:04:49;57.35;35.94;86.21;;
37223;Laerm;28026;48.562;14.440;2024-02-21T10:07:20;48.46;35.36;73.83;;
37223;Laerm;28026;48.562;14.440;2024-02-21T10:10:05;50.54;35.36;71.81;;
37223;Laerm;28026;48.562;14.440;2024-02-21T10:12:51;56.62;36.69;84.34;;
37223;Laerm;28026;48.562;14.440;2024-02-21T10:15:25;60.15;34.69;83.10;;
37223;Laerm;28026;48.562;14.440;2024-02-21T10:18:01;64.25;36.20;88.03;;
37223;Laerm;28026;48.562;14.440;2024-02-21T10:20:34;63.08;36.69;84.04;;
37223;Laerm;28026;48.562;14.440;2024-02-21T10:23:05;61.42;38.21;83.09;;
37223;Laerm;28026;48.562;14.440;2024-02-21T10:25:40;58.11;36.91;81.47;;
37223;Laerm;28026;48.562;14.440;2024-02-21T10:28:16;62.05;37.70;88.26;;
37223;Laerm;28026;48.562;14.440;2024-02-21T10:30:52;63.59;39.21;84.87;;
37223;Laerm;28026;48.562;14.440;2024-02-21T10:33:23;65.44;39.46;89.38;;
37223;Laerm;28026;48.562;14.440;2024-02-21T10:36:10;64.60;37.70;93.69;;
37223;Laerm;28026;48.562;14.440;2024-02-21T10:38:41;61.76;36.45;87.09;;
37223;Laerm;28026;48.562;14.440;2024-02-21T10:41:14;60.37;38.67;86.83;;
37223;Laerm;28026;48.562;14.440;2024-02-21T10:43:55;54.59;36.69;80.54;;
37223;Laerm;28026;48.562;14.440;2024-02-21T10:46:27;61.32;38.37;91.37;;
37223;Laerm;28026;48.562;14.440;2024-02-21T10:49:12;56.93;35.04;83.31;;
37223;Laerm;28026;48.562;14.440;2024-02-21T10:51:48;54.84;36.20;81.75;;
37223;Laerm;28026;48.562;14.440;2024-02-21T10:54:48;55.42;35.94;82.64;;
37223;Laerm;28026;48.562;14.440;2024-02-21T10:57:26;52.16;35.04;75.69;;
37223;Laerm;28026;48.562;14.440;2024-02-21T10:59:59;51.08;35.04;81.12;;
37223;Laerm;28026;48.562;14.440;2024-02-21T11:02:32;50.11;35.36;72.97;;
37223;Laerm;28026;48.562;14.440;2024-02-21T11:05:06;42.40;34.31;65.81;;
37223;Laerm;28026;48.562;14.440;2024-02-21T11:07:38;64.36;36.20;89.18;;
37223;Laerm;28026;48.562;14.440;2024-02-21T11:10:26;67.67;36.45;91.37;;
37223;Laerm;28026;48.562;14.440;2024-02-21T11:13:11;61.37;36.20;85.33;;
37223;Laerm;28026;48.562;14.440;2024-02-21T11:15:42;63.30;34.69;90.68;;
37223;Laerm;28026;48.562;14.440;2024-02-21T11:18:23;59.53;38.05;84.56;;
37223;Laerm;28026;48.562;14.440;2024-02-21T11:20:54;47.85;35.04;75.18;;
37223;Laerm;28026;48.562;14.440;2024-02-21T11:23:26;53.33;33.44;79.80;;
37223;Laerm;28026;48.562;14.440;2024-02-21T11:26:06;60.74;35.94;86.84;;
37223;Laerm;28026;48.562;14.440;2024-02-21T11:28:37;68.74;33.90;92.95;;
37223;Laerm;28026;48.562;14.440;2024-02-21T11:31:14;65.90;36.91;89.93;;
37223;Laerm;28026;48.562;14.440;2024-02-21T11:33:47;62.09;35.04;87.98;;
37223;Laerm;28026;48.562;14.440;2024-02-21T11:36:26;64.91;35.94;89.96;;
37223;Laerm;28026;48.562;14.440;2024-02-21T11:39:04;66.23;37.52;98.43;;
37223;Laerm;28026;48.562;14.440;2024-02-21T11:41:36;65.83;35.36;91.02;;
37223;Laerm;28026;48.562;14.440;2024-02-21T11:44:07;65.80;35.04;86.88;;
37223;Laerm;28026;48.562;14.440;2024-02-21T11:46:38;60.35;37.12;81.22;;
37223;Laerm;28026;48.562;14.440;2024-02-21T11:49:10;58.01;35.66;81.72;;
37223;Laerm;28026;48.562;14.440;2024-02-21T11:51:41;56.84;36.69;79.95;;
37223;Laerm;28026;48.562;14.440;2024-02-21T11:54:12;57.64;35.66;83.52;;
37223;Laerm;28026;48.562;14.440;2024-02-21T11:56:46;59.20;36.91;80.90;;
37223;Laerm;28026;48.562;14.440;2024-02-21T11:59:17;60.00;37.52;87.58;;
37223;Laerm;28026;48.562;14.440;2024-02-21T12:01:49;65.80;37.88;86.88;;
37223;Laerm;28026;48.562;14.440;2024-02-21T12:04:22;60.81;37.70;83.34;;
37223;Laerm;28026;48.562;14.440;2024-02-21T12:06:54;59.18;35.36;86.15;;
37223;Laerm;28026;48.562;14.440;2024-02-21T12:09:26;65.57;36.20;91.63;;
37223;Laerm;28026;48.562;14.440;2024-02-21T12:12:01;63.22;37.12;87.10;;
37223;Laerm;28026;48.562;14.440;2024-02-21T12:14:35;54.74;37.87;80.94;;
37223;Laerm;28026;48.562;14.440;2024-02-21T12:17:06;50.73;37.52;80.22;;
37223;Laerm;28026;48.562;14.440;2024-02-21T12:19:38;60.28;36.69;87.98;;
37223;Laerm;28026;48.562;14.440;2024-02-21T12:22:19;49.97;34.31;78.47;;
37223;Laerm;28026;48.562;14.440;2024-02-21T12:24:50;52.81;35.04;77.18;;
37223;Laerm;28026;48.562;14.440;2024-02-21T12:27:21;57.20;33.90;85.01;;
37223;Laerm;28026;48.562;14.440;2024-02-21T12:29:52;45.19;33.90;66.41;;
37223;Laerm;28026;48.562;14.440;2024-02-21T12:32:23;61.74;35.04;86.77;;
37223;Laerm;28026;48.562;14.440;2024-02-21T12:34:54;64.27;36.69;87.46;;
37223;Laerm;28026;48.562;14.440;2024-02-21T12:37:25;69.67;36.91;95.28;;
37223;Laerm;28026;48.562;14.440;2024-02-21T12:39:56;66.79;37.88;91.38;;
37223;Laerm;28026;48.562;14.440;2024-02-21T12:42:27;64.80;37.52;88.67;;
37223;Laerm;28026;48.562;14.440;2024-02-21T12:45:00;64.34;38.05;85.45;;
37223;Laerm;28026;48.562;14.440;2024-02-21T12:47:31;67.42;35.94;95.22;;
37223;Laerm;28026;48.562;14.440;2024-02-21T12:50:03;56.96;36.20;83.92;;
37223;Laerm;28026;48.562;14.440;2024-02-21T12:52:34;62.39;35.04;89.36;;
37223;Laerm;28026;48.562;14.440;2024-02-21T12:55:06;67.06;36.69;92.37;;
37223;Laerm;28026;48.562;14.440;2024-02-21T12:57:37;65.67;35.94;86.41;;
37223;Laerm;28026;48.562;14.440;2024-02-21T13:00:09;63.35;36.91;90.75;;
37223;Laerm;28026;48.562;14.440;2024-02-21T13:02:41;46.64;37.12;74.50;;
37223;Laerm;28026;48.562;14.440;2024-02-21T13:05:13;46.14;35.36;75.09;;
37223;Laerm;28026;48.562;14.440;2024-02-21T13:07:44;56.89;34.31;85.57;;
37223;Laerm;28026;48.562;14.440;2024-02-21T13:10:15;49.12;33.90;73.94;;
37223;Laerm;28026;48.562;14.440;2024-02-21T13:12:46;51.41;35.04;76.25;;
37223;Laerm;28026;48.562;14.440;2024-02-21T13:15:19;54.10;37.70;82.18;;
37223;Laerm;28026;48.562;14.440;2024-02-21T13:17:50;64.83;37.52;91.86;;
37223;Laerm;28026;48.562;14.440;2024-02-21T13:20:21;62.86;35.94;85.27;;
37223;Laerm;28026;48.562;14.440;2024-02-21T13:22:52;57.44;35.04;82.19;;
37223;Laerm;28026;48.562;14.440;2024-02-21T13:25:23;62.62;35.04;87.14;;
37223;Laerm;28026;48.562;14.440;2024-02-21T13:27:55;59.42;36.20;85.95;;
37223;Laerm;28026;48.562;14.440;2024-02-21T13:30:26;53.21;35.04;77.03;;
37223;Laerm;28026;48.562;14.440;2024-02-21T13:32:58;53.35;35.94;79.11;;
37223;Laerm;28026;48.562;14.440;2024-02-21T13:35:29;59.69;38.05;80.88;;
37223;Laerm;28026;48.562;14.440;2024-02-21T13:38:00;55.55;35.66;83.94;;
37223;Laerm;28026;48.562;14.440;2024-02-21T13:40:31;58.57;35.66;82.68;;
37223;Laerm;28026;48.562;14.440;2024-02-21T13:43:02;61.34;35.94;87.98;;
37223;Laerm;28026;48.562;14.440;2024-02-21T13:45:32;62.74;36.45;85.28;;
37223;Laerm;28026;48.562;14.440;2024-02-21T13:48:04;55.53;34.69;81.30;;
37223;Laerm;28026;48.562;14.440;2024-02-21T13:50:37;62.63;35.66;83.63;;
37223;Laerm;28026;48.562;14.440;2024-02-21T13:53:13;58.75;35.94;81.71;;
37223;Laerm;28026;48.562;14.440;2024-02-21T13:55:48;62.60;35.04;85.24;;
37223;Laerm;28026;48.562;14.440;2024-02-21T13:58:19;61.91;35.36;84.10;;
37223;Laerm;28026;48.562;14.440;2024-02-21T14:00:50;52.16;31.68;78.08;;